sensor_id;sensor_type;location;lat;lon;timestamp;pressure;altitude;pressure_sealevel;temperature;humidity
8101;BME280;4093;53.470;9.832;2023-08-12T00:01:11;101611.13;;;24.86;74.80
8101;BME280;4093;53.470;9.832;2023-08-12T00:03:39;101611.59;;;24.78;75.72
8101;BME280;4093;53.470;9.832;2023-08-12T00:06:07;101618.09;;;25.01;74.51
8101;BME280;4093;53.470;9.832;2023-08-12T00:08:35;101612.28;;;24.53;76.91
8101;BME280;4093;53.470;9.832;2023-08-12T00:11:04;101615.56;;;24.85;75.72
8101;BME280;4093;53.470;9.832;2023-08-12T00:13:31;101613.91;;;24.97;75.42
8101;BME280;4093;53.470;9.832;2023-08-12T00:15:59;101603.59;;;25.07;74.38
8101;BME280;4093;53.470;9.832;2023-08-12T00:18:27;101597.25;;;25.09;74.23
8101;BME280;4093;53.470;9.832;2023-08-12T00:20:55;101604.09;;;25.13;73.92
8101;BME280;4093;53.470;9.832;2023-08-12T00:23:24;101604.75;;;25.17;73.88
8101;BME280;4093;53.470;9.832;2023-08-12T00:25:51;101607.13;;;25.07;73.88
8101;BME280;4093;53.470;9.832;2023-08-12T00:28:20;101599.75;;;24.98;74.64
8101;BME280;4093;53.470;9.832;2023-08-12T00:30:48;101604.78;;;24.88;75.20
8101;BME280;4093;53.470;9.832;2023-08-12T00:33:16;101604.50;;;24.93;75.48
8101;BME280;4093;53.470;9.832;2023-08-12T00:35:44;101600.22;;;24.90;75.44
8101;BME280;4093;53.470;9.832;2023-08-12T00:38:12;101594.59;;;24.82;75.59
8101;BME280;4093;53.470;9.832;2023-08-12T00:40:40;101585.91;;;24.66;75.45
8101;BME280;4093;53.470;9.832;2023-08-12T00:43:09;101591.31;;;24.64;75.76
8101;BME280;4093;53.470;9.832;2023-08-12T00:45:38;101594.22;;;24.74;75.48
8101;BME280;4093;53.470;9.832;2023-08-12T00:48:07;101594.69;;;24.81;75.40
8101;BME280;4093;53.470;9.832;2023-08-12T00:50:40;101598.25;;;24.94;74.66
8101;BME280;4093;53.470;9.832;2023-08-12T00:53:09;101593.81;;;24.95;73.99
8101;BME280;4093;53.470;9.832;2023-08-12T00:55:37;101591.75;;;24.85;74.26
8101;BME280;4093;53.470;9.832;2023-08-12T00:58:05;101590.94;;;24.70;75.43
8101;BME280;4093;53.470;9.832;2023-08-12T01:00:33;101593.47;;;24.72;75.13
8101;BME280;4093;53.470;9.832;2023-08-12T01:03:03;101592.81;;;24.83;74.89
8101;BME280;4093;53.470;9.832;2023-08-12T01:05:33;101592.00;;;24.95;73.51
8101;BME280;4093;53.470;9.832;2023-08-12T01:08:03;101593.53;;;24.85;74.61
8101;BME280;4093;53.470;9.832;2023-08-12T01:10:35;101596.75;;;24.90;74.54
8101;BME280;4093;53.470;9.832;2023-08-12T01:13:11;101594.03;;;24.77;74.60
8101;BME280;4093;53.470;9.832;2023-08-12T01:15:41;101592.22;;;24.78;74.98
8101;BME280;4093;53.470;9.832;2023-08-12T01:18:12;101594.91;;;24.63;75.64
8101;BME280;4093;53.470;9.832;2023-08-12T01:20:41;101594.34;;;24.58;76.56
8101;BME280;4093;53.470;9.832;2023-08-12T01:23:12;101602.75;;;24.65;75.92
8101;BME280;4093;53.470;9.832;2023-08-12T01:25:41;101594.34;;;24.73;75.07
8101;BME280;4093;53.470;9.832;2023-08-12T01:28:08;101589.25;;;24.69;75.27
8101;BME280;4093;53.470;9.832;2023-08-12T01:30:45;101589.63;;;24.63;75.53
8101;BME280;4093;53.470;9.832;2023-08-12T01:33:18;101586.41;;;24.58;75.42
8101;BME280;4093;53.470;9.832;2023-08-12T01:35:52;101575.59;;;23.60;80.88
8101;BME280;4093;53.470;9.832;2023-08-12T01:38:25;101588.78;;;24.20;78.99
8101;BME280;4093;53.470;9.832;2023-08-12T01:40:54;101580.66;;;24.23;77.25
8101;BME280;4093;53.470;9.832;2023-08-12T01:43:22;101583.19;;;24.39;77.07
8101;BME280;4093;53.470;9.832;2023-08-12T01:45:50;101571.66;;;24.40;76.68
8101;BME280;4093;53.470;9.832;2023-08-12T01:48:18;101575.09;;;24.42;77.17
8101;BME280;4093;53.470;9.832;2023-08-12T01:50:49;101576.03;;;24.55;76.69
8101;BME280;4093;53.470;9.832;2023-08-12T01:53:17;101567.31;;;24.24;77.00
8101;BME280;4093;53.470;9.832;2023-08-12T01:55:47;101575.00;;;24.43;76.30
8101;BME280;4093;53.470;9.832;2023-08-12T01:58:15;101569.78;;;24.28;77.41
8101;BME280;4093;53.470;9.832;2023-08-12T02:00:43;101564.88;;;24.07;78.26
8101;BME280;4093;53.470;9.832;2023-08-12T02:03:10;101551.91;;;23.74;80.16
8101;BME280;4093;53.470;9.832;2023-08-12T02:05:38;101569.91;;;23.82;79.47
8101;BME280;4093;53.470;9.832;2023-08-12T02:08:07;101578.84;;;24.09;77.92
8101;BME280;4093;53.470;9.832;2023-08-12T02:10:35;101562.88;;;24.25;77.66
8101;BME280;4093;53.470;9.832;2023-08-12T02:13:04;101546.16;;;23.82;78.97
8101;BME280;4093;53.470;9.832;2023-08-12T02:15:32;101546.06;;;22.44;85.75
8101;BME280;4093;53.470;9.832;2023-08-12T02:18:00;101559.56;;;23.48;81.41
8101;BME280;4093;53.470;9.832;2023-08-12T02:20:28;101558.66;;;23.64;80.41
8101;BME280;4093;53.470;9.832;2023-08-12T02:22:56;101555.78;;;23.83;78.94
8101;BME280;4093;53.470;9.832;2023-08-12T02:25:24;101551.19;;;24.00;77.92
8101;BME280;4093;53.470;9.832;2023-08-12T02:27:51;101542.34;;;23.11;82.11
8101;BME280;4093;53.470;9.832;2023-08-12T02:30:20;101526.03;;;22.57;84.42
8101;BME280;4093;53.470;9.832;2023-08-12T02:32:48;101559.53;;;23.18;83.40
8101;BME280;4093;53.470;9.832;2023-08-12T02:35:17;101556.53;;;23.70;79.60
8101;BME280;4093;53.470;9.832;2023-08-12T02:37:45;101553.69;;;23.88;78.18
8101;BME280;4093;53.470;9.832;2023-08-12T02:40:15;101543.84;;;23.61;79.20
8101;BME280;4093;53.470;9.832;2023-08-12T02:42:42;101549.06;;;23.77;78.56
8101;BME280;4093;53.470;9.832;2023-08-12T02:45:10;101535.72;;;22.88;82.91
8101;BME280;4093;53.470;9.832;2023-08-12T02:47:39;101540.50;;;23.13;81.73
8101;BME280;4093;53.470;9.832;2023-08-12T02:50:08;101533.63;;;22.95;82.66
8101;BME280;4093;53.470;9.832;2023-08-12T02:52:36;101528.53;;;23.22;82.78
8101;BME280;4093;53.470;9.832;2023-08-12T02:55:04;101503.81;;;23.53;80.08
8101;BME280;4093;53.470;9.832;2023-08-12T02:57:32;101519.66;;;23.83;79.71
8101;BME280;4093;53.470;9.832;2023-08-12T02:59:59;101512.38;;;23.87;79.48
8101;BME280;4093;53.470;9.832;2023-08-12T03:02:27;101508.03;;;24.00;77.07
8101;BME280;4093;53.470;9.832;2023-08-12T03:04:56;101511.94;;;23.94;77.59
8101;BME280;4093;53.470;9.832;2023-08-12T03:07:24;101508.44;;;23.80;77.45
8101;BME280;4093;53.470;9.832;2023-08-12T03:09:51;101506.00;;;23.61;78.89
8101;BME280;4093;53.470;9.832;2023-08-12T03:12:19;101506.56;;;23.66;79.40
8101;BME280;4093;53.470;9.832;2023-08-12T03:14:47;101493.97;;;23.41;79.53
8101;BME280;4093;53.470;9.832;2023-08-12T03:17:15;101512.91;;;23.63;78.74
8101;BME280;4093;53.470;9.832;2023-08-12T03:19:43;101503.84;;;23.67;78.19
8101;BME280;4093;53.470;9.832;2023-08-12T03:22:12;101519.28;;;23.89;77.09
8101;BME280;4093;53.470;9.832;2023-08-12T03:24:40;101498.22;;;23.73;77.49
8101;BME280;4093;53.470;9.832;2023-08-12T03:27:08;101498.31;;;23.86;77.98
8101;BME280;4093;53.470;9.832;2023-08-12T03:29:36;101501.84;;;24.01;76.58
8101;BME280;4093;53.470;9.832;2023-08-12T03:32:04;101490.09;;;23.91;76.68
8101;BME280;4093;53.470;9.832;2023-08-12T03:34:31;101488.41;;;23.90;77.24
8101;BME280;4093;53.470;9.832;2023-08-12T03:36:59;101478.78;;;23.74;78.00
8101;BME280;4093;53.470;9.832;2023-08-12T03:39:28;101497.66;;;23.83;77.45
8101;BME280;4093;53.470;9.832;2023-08-12T03:41:56;101497.84;;;23.80;77.00
8101;BME280;4093;53.470;9.832;2023-08-12T03:44:24;101493.06;;;23.42;79.21
8101;BME280;4093;53.470;9.832;2023-08-12T03:46:52;101499.38;;;23.39;78.76
8101;BME280;4093;53.470;9.832;2023-08-12T03:49:20;101507.03;;;23.58;78.41
8101;BME280;4093;53.470;9.832;2023-08-12T03:51:48;101502.91;;;23.54;78.04
8101;BME280;4093;53.470;9.832;2023-08-12T03:54:15;101505.50;;;23.40;79.03
8101;BME280;4093;53.470;9.832;2023-08-12T03:56:44;101508.91;;;23.42;78.29
8101;BME280;4093;53.470;9.832;2023-08-12T03:59:12;101498.50;;;22.93;81.12
8101;BME280;4093;53.470;9.832;2023-08-12T04:01:40;101502.63;;;22.82;81.69
8101;BME280;4093;53.470;9.832;2023-08-12T04:04:07;101493.19;;;22.47;83.71
8101;BME280;4093;53.470;9.832;2023-08-12T04:06:39;101504.13;;;22.86;81.42
8101;BME280;4093;53.470;9.832;2023-08-12T04:09:07;101491.00;;;23.17;80.07
8101;BME280;4093;53.470;9.832;2023-08-12T04:11:35;101494.94;;;23.40;79.37
8101;BME280;4093;53.470;9.832;2023-08-12T04:14:04;101493.06;;;23.56;78.41
8101;BME280;4093;53.470;9.832;2023-08-12T04:16:31;101496.00;;;23.51;78.36
8101;BME280;4093;53.470;9.832;2023-08-12T04:18:59;101501.41;;;23.64;78.51
8101;BME280;4093;53.470;9.832;2023-08-12T04:21:27;101485.75;;;23.31;79.14
8101;BME280;4093;53.470;9.832;2023-08-12T04:23:55;101485.69;;;23.32;79.31
8101;BME280;4093;53.470;9.832;2023-08-12T04:26:23;101494.38;;;23.49;79.55
8101;BME280;4093;53.470;9.832;2023-08-12T04:28:51;101503.19;;;23.64;78.31
8101;BME280;4093;53.470;9.832;2023-08-12T04:31:20;101487.75;;;22.97;80.92
8101;BME280;4093;53.470;9.832;2023-08-12T04:33:47;101500.38;;;22.91;82.10
8101;BME280;4093;53.470;9.832;2023-08-12T04:36:19;101506.03;;;23.30;79.83
8101;BME280;4093;53.470;9.832;2023-08-12T04:38:46;101497.31;;;23.44;79.05
8101;BME280;4093;53.470;9.832;2023-08-12T04:41:14;101502.59;;;23.44;78.93
8101;BME280;4093;53.470;9.832;2023-08-12T04:43:42;101504.28;;;23.45;80.11
8101;BME280;4093;53.470;9.832;2023-08-12T04:46:09;101501.53;;;23.47;80.26
8101;BME280;4093;53.470;9.832;2023-08-12T04:48:39;101502.00;;;23.69;79.59
8101;BME280;4093;53.470;9.832;2023-08-12T04:51:06;101488.44;;;23.60;78.97
8101;BME280;4093;53.470;9.832;2023-08-12T04:53:34;101478.31;;;23.23;80.99
8101;BME280;4093;53.470;9.832;2023-08-12T04:56:02;101482.19;;;23.02;82.64
8101;BME280;4093;53.470;9.832;2023-08-12T04:58:30;101493.25;;;23.39;81.29
8101;BME280;4093;53.470;9.832;2023-08-12T05:00:57;101510.09;;;23.66;80.79
8101;BME280;4093;53.470;9.832;2023-08-12T05:03:25;101509.38;;;23.78;79.56
8101;BME280;4093;53.470;9.832;2023-08-12T05:05:55;101506.34;;;23.70;80.21
8101;BME280;4093;53.470;9.832;2023-08-12T05:08:23;101511.78;;;23.67;79.85
8101;BME280;4093;53.470;9.832;2023-08-12T05:10:51;101517.38;;;23.77;80.19
8101;BME280;4093;53.470;9.832;2023-08-12T05:13:18;101523.78;;;23.87;78.78
8101;BME280;4093;53.470;9.832;2023-08-12T05:15:47;101522.38;;;23.82;79.66
8101;BME280;4093;53.470;9.832;2023-08-12T05:18:15;101515.59;;;23.77;79.12
8101;BME280;4093;53.470;9.832;2023-08-12T05:20:42;101520.88;;;23.77;79.99
8101;BME280;4093;53.470;9.832;2023-08-12T05:23:14;101508.00;;;23.57;82.16
8101;BME280;4093;53.470;9.832;2023-08-12T05:25:42;101509.63;;;23.74;81.16
8101;BME280;4093;53.470;9.832;2023-08-12T05:28:09;101502.06;;;23.53;83.00
8101;BME280;4093;53.470;9.832;2023-08-12T05:30:37;101518.63;;;23.86;82.08
8101;BME280;4093;53.470;9.832;2023-08-12T05:33:05;101514.06;;;23.88;82.11
8101;BME280;4093;53.470;9.832;2023-08-12T05:35:33;101515.50;;;23.93;82.08
8101;BME280;4093;53.470;9.832;2023-08-12T05:38:01;101519.56;;;23.99;81.51
8101;BME280;4093;53.470;9.832;2023-08-12T05:40:30;101521.00;;;24.05;80.88
8101;BME280;4093;53.470;9.832;2023-08-12T05:42:58;101509.66;;;24.02;81.48
8101;BME280;4093;53.470;9.832;2023-08-12T05:45:26;101518.63;;;24.14;81.31
8101;BME280;4093;53.470;9.832;2023-08-12T05:47:54;101514.28;;;24.13;81.16
8101;BME280;4093;53.470;9.832;2023-08-12T05:50:21;101516.06;;;23.84;82.96
8101;BME280;4093;53.470;9.832;2023-08-12T05:52:49;101524.94;;;24.12;82.09
8101;BME280;4093;53.470;9.832;2023-08-12T05:55:17;101517.13;;;24.10;82.83
8101;BME280;4093;53.470;9.832;2023-08-12T05:57:46;101509.28;;;23.80;84.60
8101;BME280;4093;53.470;9.832;2023-08-12T06:00:14;101528.06;;;23.90;84.69
8101;BME280;4093;53.470;9.832;2023-08-12T06:02:41;101529.94;;;24.02;83.94
8101;BME280;4093;53.470;9.832;2023-08-12T06:05:09;101517.75;;;24.28;82.40
8101;BME280;4093;53.470;9.832;2023-08-12T06:07:37;101510.38;;;24.19;82.19
8101;BME280;4093;53.470;9.832;2023-08-12T06:10:06;101512.69;;;24.11;83.01
8101;BME280;4093;53.470;9.832;2023-08-12T06:12:33;101519.56;;;24.13;83.50
8101;BME280;4093;53.470;9.832;2023-08-12T06:15:03;101516.84;;;24.00;84.34
8101;BME280;4093;53.470;9.832;2023-08-12T06:17:31;101510.50;;;24.17;83.00
8101;BME280;4093;53.470;9.832;2023-08-12T06:19:59;101514.75;;;23.91;84.66
8101;BME280;4093;53.470;9.832;2023-08-12T06:22:26;101519.50;;;24.00;84.34
8101;BME280;4093;53.470;9.832;2023-08-12T06:24:54;101505.97;;;24.05;84.36
8101;BME280;4093;53.470;9.832;2023-08-12T06:27:22;101500.75;;;24.04;85.13
8101;BME280;4093;53.470;9.832;2023-08-12T06:29:50;101503.03;;;24.10;84.76
8101;BME280;4093;53.470;9.832;2023-08-12T06:32:19;101465.03;;;23.98;84.52
8101;BME280;4093;53.470;9.832;2023-08-12T06:34:46;101490.66;;;24.24;84.26
8101;BME280;4093;53.470;9.832;2023-08-12T06:37:14;101483.75;;;24.22;84.40
8101;BME280;4093;53.470;9.832;2023-08-12T06:39:42;101477.28;;;24.13;85.25
8101;BME280;4093;53.470;9.832;2023-08-12T06:42:09;101484.34;;;24.13;85.06
8101;BME280;4093;53.470;9.832;2023-08-12T06:44:38;101471.38;;;23.51;89.16
8101;BME280;4093;53.470;9.832;2023-08-12T06:47:06;101477.00;;;23.89;88.62
8101;BME280;4093;53.470;9.832;2023-08-12T06:49:35;101478.00;;;24.30;85.51
8101;BME280;4093;53.470;9.832;2023-08-12T06:52:03;101476.81;;;24.62;83.51
8101;BME280;4093;53.470;9.832;2023-08-12T06:54:30;101462.28;;;24.41;83.88
8101;BME280;4093;53.470;9.832;2023-08-12T06:56:58;101456.88;;;23.58;88.83
8101;BME280;4093;53.470;9.832;2023-08-12T06:59:26;101457.84;;;23.86;88.40
8101;BME280;4093;53.470;9.832;2023-08-12T07:01:53;101462.34;;;24.12;87.73
8101;BME280;4093;53.470;9.832;2023-08-12T07:04:21;101451.50;;;24.17;86.56
8101;BME280;4093;53.470;9.832;2023-08-12T07:06:50;101442.91;;;23.42;91.37
8101;BME280;4093;53.470;9.832;2023-08-12T07:09:18;101447.38;;;23.98;89.02
8101;BME280;4093;53.470;9.832;2023-08-12T07:11:46;101440.28;;;23.85;88.96
8101;BME280;4093;53.470;9.832;2023-08-12T07:14:13;101443.97;;;24.11;88.06
8101;BME280;4093;53.470;9.832;2023-08-12T07:16:41;101452.47;;;24.01;88.51
8101;BME280;4093;53.470;9.832;2023-08-12T07:19:09;101447.81;;;24.19;88.61
8101;BME280;4093;53.470;9.832;2023-08-12T07:21:39;101452.06;;;24.63;85.81
8101;BME280;4093;53.470;9.832;2023-08-12T07:24:08;101455.00;;;24.86;84.02
8101;BME280;4093;53.470;9.832;2023-08-12T07:26:36;101454.00;;;24.74;84.61
8101;BME280;4093;53.470;9.832;2023-08-12T07:29:04;101448.47;;;24.91;84.49
8101;BME280;4093;53.470;9.832;2023-08-12T07:31:31;101440.78;;;24.74;84.58
8101;BME280;4093;53.470;9.832;2023-08-12T07:33:59;101448.69;;;25.01;84.80
8101;BME280;4093;53.470;9.832;2023-08-12T07:36:27;101443.19;;;25.04;84.39
8101;BME280;4093;53.470;9.832;2023-08-12T07:38:55;101447.78;;;25.28;82.81
8101;BME280;4093;53.470;9.832;2023-08-12T07:41:24;101448.44;;;25.44;81.84
8101;BME280;4093;53.470;9.832;2023-08-12T07:43:53;101446.09;;;25.14;82.86
8101;BME280;4093;53.470;9.832;2023-08-12T07:46:21;101447.72;;;25.42;81.75
8101;BME280;4093;53.470;9.832;2023-08-12T07:48:49;101440.19;;;25.23;81.38
8101;BME280;4093;53.470;9.832;2023-08-12T07:51:17;101447.28;;;24.83;83.86
8101;BME280;4093;53.470;9.832;2023-08-12T07:53:45;101448.63;;;25.15;83.34
8101;BME280;4093;53.470;9.832;2023-08-12T07:56:12;101444.09;;;25.18;82.45
8101;BME280;4093;53.470;9.832;2023-08-12T07:58:41;101444.66;;;25.48;82.01
8101;BME280;4093;53.470;9.832;2023-08-12T08:01:09;101442.72;;;25.50;81.74
8101;BME280;4093;53.470;9.832;2023-08-12T08:03:37;101436.16;;;25.43;82.97
8101;BME280;4093;53.470;9.832;2023-08-12T08:06:05;101427.59;;;25.00;84.40
8101;BME280;4093;53.470;9.832;2023-08-12T08:08:32;101441.16;;;25.60;83.04
8101;BME280;4093;53.470;9.832;2023-08-12T08:11:00;101442.69;;;25.76;82.31
8101;BME280;4093;53.470;9.832;2023-08-12T08:13:28;101442.91;;;25.73;83.15
8101;BME280;4093;53.470;9.832;2023-08-12T08:15:57;101443.16;;;25.95;82.82
8101;BME280;4093;53.470;9.832;2023-08-12T08:18:25;101423.97;;;25.28;84.20
8101;BME280;4093;53.470;9.832;2023-08-12T08:20:52;101435.94;;;25.46;84.59
8101;BME280;4093;53.470;9.832;2023-08-12T08:23:20;101438.69;;;26.33;81.58
8101;BME280;4093;53.470;9.832;2023-08-12T08:25:48;101413.63;;;26.37;78.82
8101;BME280;4093;53.470;9.832;2023-08-12T08:28:16;101412.00;;;25.48;82.27
8101;BME280;4093;53.470;9.832;2023-08-12T08:30:44;101410.09;;;25.37;84.86
8101;BME280;4093;53.470;9.832;2023-08-12T08:33:13;101411.84;;;24.98;86.23
8101;BME280;4093;53.470;9.832;2023-08-12T08:35:40;101430.44;;;25.36;85.91
8101;BME280;4093;53.470;9.832;2023-08-12T08:38:08;101431.28;;;25.50;84.80
8101;BME280;4093;53.470;9.832;2023-08-12T08:40:36;101423.44;;;25.23;84.75
8101;BME280;4093;53.470;9.832;2023-08-12T08:43:07;101435.09;;;25.84;82.59
8101;BME280;4093;53.470;9.832;2023-08-12T08:45:35;101426.41;;;26.19;81.07
8101;BME280;4093;53.470;9.832;2023-08-12T08:48:03;101427.63;;;26.15;81.45
8101;BME280;4093;53.470;9.832;2023-08-12T08:50:34;101417.41;;;26.21;81.17
8101;BME280;4093;53.470;9.832;2023-08-12T08:53:05;101415.38;;;25.50;84.46
8101;BME280;4093;53.470;9.832;2023-08-12T08:55:33;101415.56;;;24.68;89.17
8101;BME280;4093;53.470;9.832;2023-08-12T08:58:01;101419.97;;;24.82;88.67
8101;BME280;4093;53.470;9.832;2023-08-12T09:00:31;101417.97;;;24.86;89.04
8101;BME280;4093;53.470;9.832;2023-08-12T09:03:00;101437.00;;;25.31;86.41
8101;BME280;4093;53.470;9.832;2023-08-12T09:05:30;101424.31;;;24.96;87.97
8101;BME280;4093;53.470;9.832;2023-08-12T09:08:00;101431.50;;;25.21;87.65
8101;BME280;4093;53.470;9.832;2023-08-12T09:10:29;101436.97;;;25.69;84.26
8101;BME280;4093;53.470;9.832;2023-08-12T09:12:58;101431.41;;;26.23;82.29
8101;BME280;4093;53.470;9.832;2023-08-12T09:15:25;101420.16;;;26.20;80.84
8101;BME280;4093;53.470;9.832;2023-08-12T09:17:53;101423.59;;;26.09;81.88
8101;BME280;4093;53.470;9.832;2023-08-12T09:20:21;101414.75;;;26.21;81.59
8101;BME280;4093;53.470;9.832;2023-08-12T09:22:55;101407.25;;;26.15;82.03
8101;BME280;4093;53.470;9.832;2023-08-12T09:25:26;101409.34;;;25.60;84.75
8101;BME280;4093;53.470;9.832;2023-08-12T09:27:54;101424.66;;;26.06;83.15
8101;BME280;4093;53.470;9.832;2023-08-12T09:30:22;101410.50;;;25.69;85.38
8101;BME280;4093;53.470;9.832;2023-08-12T09:32:58;101413.69;;;25.87;83.70
8101;BME280;4093;53.470;9.832;2023-08-12T09:35:32;101414.66;;;26.10;83.15
8101;BME280;4093;53.470;9.832;2023-08-12T09:38:03;101405.22;;;25.56;85.53
8101;BME280;4093;53.470;9.832;2023-08-12T09:40:33;101423.28;;;26.01;83.96
8101;BME280;4093;53.470;9.832;2023-08-12T09:43:02;101407.59;;;26.11;83.31
8101;BME280;4093;53.470;9.832;2023-08-12T09:45:31;101418.97;;;25.87;85.42
8101;BME280;4093;53.470;9.832;2023-08-12T09:47:59;101413.38;;;25.92;84.71
8101;BME280;4093;53.470;9.832;2023-08-12T09:50:28;101421.47;;;26.38;83.06
8101;BME280;4093;53.470;9.832;2023-08-12T09:52:56;101413.47;;;26.51;81.90
8101;BME280;4093;53.470;9.832;2023-08-12T09:55:24;101411.03;;;26.72;81.32
8101;BME280;4093;53.470;9.832;2023-08-12T09:57:54;101380.16;;;26.47;81.72
8101;BME280;4093;53.470;9.832;2023-08-12T10:00:23;101389.88;;;25.49;85.52
8101;BME280;4093;53.470;9.832;2023-08-12T10:02:52;101388.28;;;25.21;86.67
8101;BME280;4093;53.470;9.832;2023-08-12T10:05:22;101405.53;;;25.65;85.39
8101;BME280;4093;53.470;9.832;2023-08-12T10:07:53;101404.88;;;25.87;84.36
8101;BME280;4093;53.470;9.832;2023-08-12T10:10:21;101399.34;;;26.02;82.97
8101;BME280;4093;53.470;9.832;2023-08-12T10:12:50;101387.41;;;25.71;84.30
8101;BME280;4093;53.470;9.832;2023-08-12T10:15:20;101386.88;;;25.53;85.98
8101;BME280;4093;53.470;9.832;2023-08-12T10:17:51;101397.91;;;25.86;84.57
8101;BME280;4093;53.470;9.832;2023-08-12T10:20:21;101401.19;;;25.89;85.47
8101;BME280;4093;53.470;9.832;2023-08-12T10:22:49;101402.28;;;26.35;83.13
8101;BME280;4093;53.470;9.832;2023-08-12T10:25:18;101399.91;;;26.67;82.57
8101;BME280;4093;53.470;9.832;2023-08-12T10:27:48;101397.94;;;26.82;80.77
8101;BME280;4093;53.470;9.832;2023-08-12T10:30:16;101389.44;;;26.65;81.03
8101;BME280;4093;53.470;9.832;2023-08-12T10:32:46;101392.53;;;26.83;79.98
8101;BME280;4093;53.470;9.832;2023-08-12T10:35:14;101384.19;;;26.76;81.18
8101;BME280;4093;53.470;9.832;2023-08-12T10:37:48;101376.53;;;26.61;82.17
8101;BME280;4093;53.470;9.832;2023-08-12T10:40:20;101372.75;;;26.52;83.15
8101;BME280;4093;53.470;9.832;2023-08-12T10:42:50;101369.88;;;25.94;84.59
8101;BME280;4093;53.470;9.832;2023-08-12T10:45:18;101382.56;;;26.39;83.75
8101;BME280;4093;53.470;9.832;2023-08-12T10:47:53;101364.88;;;26.50;83.01
8101;BME280;4093;53.470;9.832;2023-08-12T10:50:36;101366.81;;;26.84;82.96
8101;BME280;4093;53.470;9.832;2023-08-12T10:53:25;101367.75;;;27.29;78.44
8101;BME280;4093;53.470;9.832;2023-08-12T10:55:57;101358.47;;;27.24;80.83
8101;BME280;4093;53.470;9.832;2023-08-12T10:58:33;101345.91;;;27.14;78.98
8101;BME280;4093;53.470;9.832;2023-08-12T11:01:01;101346.13;;;27.45;78.83
8101;BME280;4093;53.470;9.832;2023-08-12T11:03:33;101349.72;;;27.89;78.95
8101;BME280;4093;53.470;9.832;2023-08-12T11:06:04;101349.41;;;27.71;78.04
8101;BME280;4093;53.470;9.832;2023-08-12T11:08:33;101337.22;;;27.46;78.64
8101;BME280;4093;53.470;9.832;2023-08-12T11:11:01;101345.19;;;27.35;79.15
8101;BME280;4093;53.470;9.832;2023-08-12T11:13:29;101341.41;;;27.26;79.52
8101;BME280;4093;53.470;9.832;2023-08-12T11:16:08;101335.00;;;27.06;79.60
8101;BME280;4093;53.470;9.832;2023-08-12T11:18:39;101334.97;;;26.95;80.26
8101;BME280;4093;53.470;9.832;2023-08-12T11:21:07;101337.00;;;26.80;81.23
8101;BME280;4093;53.470;9.832;2023-08-12T11:23:35;101344.84;;;26.82;80.07
8101;BME280;4093;53.470;9.832;2023-08-12T11:26:03;101340.16;;;26.96;79.17
8101;BME280;4093;53.470;9.832;2023-08-12T11:28:31;101329.00;;;26.58;80.25
8101;BME280;4093;53.470;9.832;2023-08-12T11:31:00;101328.78;;;26.72;79.79
8101;BME280;4093;53.470;9.832;2023-08-12T11:33:30;101325.19;;;26.84;79.71
8101;BME280;4093;53.470;9.832;2023-08-12T11:35:59;101316.94;;;26.76;79.74
8101;BME280;4093;53.470;9.832;2023-08-12T11:38:27;101320.09;;;26.81;79.27
8101;BME280;4093;53.470;9.832;2023-08-12T11:40:54;101315.41;;;26.73;79.96
8101;BME280;4093;53.470;9.832;2023-08-12T11:43:22;101312.34;;;26.67;80.29
8101;BME280;4093;53.470;9.832;2023-08-12T11:45:50;101313.09;;;26.45;80.79
8101;BME280;4093;53.470;9.832;2023-08-12T11:48:18;101318.72;;;26.29;82.14
8101;BME280;4093;53.470;9.832;2023-08-12T11:50:46;101300.09;;;25.57;84.65
8101;BME280;4093;53.470;9.832;2023-08-12T11:53:16;101312.00;;;25.26;87.63
8101;BME280;4093;53.470;9.832;2023-08-12T11:55:44;101305.66;;;25.15;88.78
8101;BME280;4093;53.470;9.832;2023-08-12T11:58:13;101312.28;;;25.59;85.36
8101;BME280;4093;53.470;9.832;2023-08-12T12:00:46;101315.84;;;25.71;85.23
8101;BME280;4093;53.470;9.832;2023-08-12T12:03:16;101308.34;;;26.02;83.37
8101;BME280;4093;53.470;9.832;2023-08-12T12:05:46;101298.69;;;25.27;88.18
8101;BME280;4093;53.470;9.832;2023-08-12T12:08:15;101288.59;;;24.81;90.39
8101;BME280;4093;53.470;9.832;2023-08-12T12:10:43;101289.53;;;24.42;92.78
8101;BME280;4093;53.470;9.832;2023-08-12T12:13:11;101288.81;;;24.65;91.48
8101;BME280;4093;53.470;9.832;2023-08-12T12:15:41;101269.25;;;24.28;93.16
8101;BME280;4093;53.470;9.832;2023-08-12T12:18:10;101282.69;;;24.78;91.70
8101;BME280;4093;53.470;9.832;2023-08-12T12:20:42;101268.06;;;24.59;90.73
8101;BME280;4093;53.470;9.832;2023-08-12T12:23:10;101295.94;;;25.66;88.75
8101;BME280;4093;53.470;9.832;2023-08-12T12:25:40;101289.00;;;26.13;83.56
8101;BME280;4093;53.470;9.832;2023-08-12T12:28:08;101245.94;;;26.33;83.57
8101;BME280;4093;53.470;9.832;2023-08-12T12:30:36;101277.53;;;27.05;81.44
8101;BME280;4093;53.470;9.832;2023-08-12T12:33:04;101271.03;;;27.09;81.25
8101;BME280;4093;53.470;9.832;2023-08-12T12:35:32;101272.16;;;27.18;81.24
8101;BME280;4093;53.470;9.832;2023-08-12T12:38:17;101261.25;;;27.10;79.71
8101;BME280;4093;53.470;9.832;2023-08-12T12:40:46;101259.78;;;26.83;80.86
8101;BME280;4093;53.470;9.832;2023-08-12T12:43:13;101259.56;;;26.86;80.93
8101;BME280;4093;53.470;9.832;2023-08-12T12:45:41;101254.69;;;26.69;82.49
8101;BME280;4093;53.470;9.832;2023-08-12T12:48:09;101263.97;;;26.52;82.44
8101;BME280;4093;53.470;9.832;2023-08-12T12:50:37;101260.47;;;26.51;83.19
8101;BME280;4093;53.470;9.832;2023-08-12T12:53:05;101260.84;;;26.58;83.03
8101;BME280;4093;53.470;9.832;2023-08-12T12:55:33;101251.31;;;26.67;82.46
8101;BME280;4093;53.470;9.832;2023-08-12T12:58:02;101245.50;;;26.50;82.51
8101;BME280;4093;53.470;9.832;2023-08-12T13:00:29;101241.13;;;26.03;85.33
8101;BME280;4093;53.470;9.832;2023-08-12T13:02:57;101241.22;;;25.77;86.28
8101;BME280;4093;53.470;9.832;2023-08-12T13:05:25;101253.06;;;26.44;83.97
8101;BME280;4093;53.470;9.832;2023-08-12T13:07:53;101246.72;;;25.87;85.26
8101;BME280;4093;53.470;9.832;2023-08-12T13:10:21;101250.44;;;26.20;85.39
8101;BME280;4093;53.470;9.832;2023-08-12T13:12:49;101256.53;;;26.33;85.58
8101;BME280;4093;53.470;9.832;2023-08-12T13:15:18;101245.22;;;26.42;84.31
8101;BME280;4093;53.470;9.832;2023-08-12T13:17:45;101249.16;;;26.72;84.67